createdAt,value
2018-03-03T00:01:09.698Z,9.60
2018-03-03T00:03:45.130Z,10.85
2018-03-03T00:06:20.316Z,11.80
2018-03-03T00:08:56.213Z,12.63
2018-03-03T00:11:31.350Z,10.17
2018-03-03T00:14:11.594Z,10.97
2018-03-03T00:16:47.666Z,10.40
2018-03-03T00:19:22.932Z,9.20
2018-03-03T00:21:57.908Z,9.70
2018-03-03T00:24:32.791Z,9.03
2018-03-03T00:27:08.698Z,11.98
2018-03-03T00:29:43.376Z,13.20
2018-03-03T00:32:18.346Z,8.60
2018-03-03T00:34:53.647Z,8.45
2018-03-03T00:37:28.797Z,10.47
2018-03-03T00:40:04.179Z,11.60
2018-03-03T00:42:39.251Z,7.62
2018-03-03T00:45:14.358Z,7.53
2018-03-03T00:47:49.250Z,6.28
2018-03-03T00:50:24.397Z,8.80
2018-03-03T00:52:59.401Z,8.35
2018-03-03T00:55:34.491Z,7.90
2018-03-03T00:58:09.368Z,11.90
2018-03-03T01:00:44.139Z,9.37
2018-03-03T01:03:18.718Z,11.00
2018-03-03T01:05:53.815Z,13.23
2018-03-03T01:08:28.834Z,9.10
2018-03-03T01:11:04.683Z,7.55
2018-03-03T01:13:39.579Z,12.05
2018-03-03T01:16:14.692Z,11.93
2018-03-03T01:18:49.922Z,12.17
2018-03-03T01:21:25.243Z,14.37
2018-03-03T01:24:00.566Z,11.87
2018-03-03T01:26:35.570Z,12.25
2018-03-03T01:29:10.678Z,7.43
2018-03-03T01:31:45.810Z,6.97
2018-03-03T01:34:20.878Z,11.00
2018-03-03T01:36:56.133Z,12.70
2018-03-03T01:39:31.703Z,11.48
2018-03-03T01:42:06.631Z,9.18
2018-03-03T01:44:41.707Z,11.73
2018-03-03T01:47:16.675Z,5.60
2018-03-03T01:49:51.691Z,9.82
2018-03-03T01:52:26.249Z,8.97
2018-03-03T01:55:01.822Z,7.25
2018-03-03T01:57:37.454Z,11.33
2018-03-03T02:00:12.087Z,9.27
2018-03-03T02:02:47.599Z,15.30
2018-03-03T02:05:23.070Z,10.97
2018-03-03T02:07:58.291Z,11.40
2018-03-03T02:10:33.834Z,12.70
2018-03-03T02:13:08.904Z,11.83
2018-03-03T02:15:44.075Z,9.20
2018-03-03T02:18:19.260Z,12.70
2018-03-03T02:20:54.918Z,8.52
2018-03-03T02:23:29.907Z,8.37
2018-03-03T02:26:04.768Z,10.80
2018-03-03T02:28:39.910Z,11.47
2018-03-03T02:31:14.917Z,7.43
2018-03-03T02:33:50.244Z,10.33
2018-03-03T02:36:25.628Z,9.10
2018-03-03T02:39:00.910Z,6.90
2018-03-03T02:41:35.851Z,13.40
2018-03-03T02:44:10.963Z,8.30
2018-03-03T02:46:46.135Z,6.20
2018-03-03T02:49:21.099Z,6.63
2018-03-03T02:51:56.339Z,9.90
2018-03-03T02:54:31.334Z,9.67
2018-03-03T02:57:05.950Z,5.53
2018-03-03T02:59:40.835Z,7.70
2018-03-03T03:02:16.072Z,11.17
2018-03-03T03:04:51.259Z,9.77
2018-03-03T03:07:26.110Z,8.67
2018-03-03T03:10:01.190Z,9.30
2018-03-03T03:12:36.230Z,12.07
2018-03-03T03:15:11.259Z,13.40
2018-03-03T03:17:46.377Z,8.50
2018-03-03T03:20:20.878Z,10.83
2018-03-03T03:22:56.537Z,9.52
2018-03-03T03:25:31.064Z,7.37
2018-03-03T03:28:06.123Z,13.25
2018-03-03T03:30:40.907Z,8.07
2018-03-03T03:33:16.750Z,11.10
2018-03-03T03:35:52.127Z,10.73
2018-03-03T03:38:26.930Z,9.10
2018-03-03T03:41:02.427Z,10.87
2018-03-03T03:43:37.244Z,12.27
2018-03-03T03:46:12.270Z,14.17
2018-03-03T03:48:48.329Z,10.43
2018-03-03T03:51:23.049Z,15.00
2018-03-03T03:53:57.966Z,5.10
2018-03-03T03:56:33.210Z,9.20
2018-03-03T03:59:08.133Z,11.50
2018-03-03T04:01:43.365Z,10.80
2018-03-03T04:04:18.422Z,10.73
2018-03-03T04:06:53.465Z,8.03
2018-03-03T04:09:28.910Z,8.35
2018-03-03T04:12:03.982Z,11.63
2018-03-03T04:14:39.046Z,13.03
2018-03-03T04:17:13.998Z,8.07
2018-03-03T04:19:49.045Z,13.93
2018-03-03T04:22:23.683Z,12.33
2018-03-03T04:24:58.869Z,11.55
2018-03-03T04:27:33.701Z,8.13
2018-03-03T04:30:09.029Z,11.10
2018-03-03T04:32:43.898Z,6.57
2018-03-03T04:35:18.907Z,8.63
2018-03-03T04:37:53.457Z,10.37
2018-03-03T04:40:28.586Z,8.03
2018-03-03T04:43:03.225Z,12.05
2018-03-03T04:45:37.566Z,10.43
2018-03-03T04:48:12.827Z,7.50
2018-03-03T04:50:48.278Z,13.43
2018-03-03T04:53:23.224Z,10.67
2018-03-03T04:55:57.934Z,9.07
2018-03-03T04:58:33.024Z,8.47
2018-03-03T05:01:08.430Z,6.60
2018-03-03T05:04:02.856Z,12.20
2018-03-03T05:09:36.349Z,6.87
2018-03-03T05:12:11.358Z,11.53
2018-03-03T05:18:08.897Z,8.52
2018-03-03T05:20:49.705Z,8.83
2018-03-03T05:23:29.065Z,8.50
2018-03-03T05:26:09.099Z,10.40
2018-03-03T05:31:52.127Z,8.27
2018-03-03T05:37:37.816Z,14.32
2018-03-03T05:43:14.890Z,11.87
2018-03-03T05:45:54.962Z,11.33
2018-03-03T05:48:30.314Z,7.10
2018-03-03T05:54:11.130Z,8.30
2018-03-03T05:56:52.553Z,9.70
2018-03-03T05:59:28.743Z,13.05
2018-03-03T06:02:13.136Z,10.33
2018-03-03T06:08:06.670Z,12.15
2018-03-03T06:10:41.574Z,8.60
2018-03-03T06:13:16.554Z,7.73
2018-03-03T06:15:51.482Z,10.90
2018-03-03T06:18:26.473Z,9.70
2018-03-03T06:21:01.630Z,13.70
2018-03-03T06:23:36.682Z,11.27
2018-03-03T06:26:11.446Z,9.30
2018-03-03T06:28:46.703Z,9.20
2018-03-03T06:31:21.405Z,10.87
2018-03-03T06:33:56.727Z,9.38
2018-03-03T06:36:31.586Z,13.20
2018-03-03T06:39:06.482Z,13.00
2018-03-03T06:41:41.643Z,10.87
2018-03-03T06:44:16.490Z,14.00
2018-03-03T06:46:51.669Z,12.80
2018-03-03T06:49:26.492Z,8.30
2018-03-03T06:52:01.427Z,9.83
2018-03-03T06:54:36.569Z,7.90
2018-03-03T06:57:11.473Z,11.60
2018-03-03T06:59:46.474Z,8.40
2018-03-03T07:02:21.534Z,10.37
2018-03-03T07:04:56.381Z,11.00
2018-03-03T07:07:31.550Z,12.13
2018-03-03T07:10:06.662Z,9.70
2018-03-03T07:12:41.290Z,12.73
2018-03-03T07:15:18.759Z,9.53
2018-03-03T07:17:53.713Z,6.47
2018-03-03T07:20:28.619Z,8.70
2018-03-03T07:23:03.441Z,10.87
2018-03-03T07:25:38.082Z,12.13
2018-03-03T07:28:13.010Z,14.10
2018-03-03T07:30:48.895Z,14.77
2018-03-03T07:33:24.442Z,17.50
2018-03-03T07:35:59.440Z,14.33
2018-03-03T07:38:34.554Z,13.30
2018-03-03T07:41:09.413Z,15.77
2018-03-03T07:43:44.706Z,9.80
2018-03-03T07:46:19.683Z,14.40
2018-03-03T07:48:54.835Z,12.50
2018-03-03T07:51:29.066Z,13.67
2018-03-03T07:54:04.654Z,12.60
2018-03-03T07:56:49.765Z,11.27
2018-03-03T07:59:24.589Z,10.17
2018-03-03T08:01:59.126Z,14.02
2018-03-03T08:04:33.451Z,16.60
2018-03-03T08:07:08.092Z,17.50
2018-03-03T08:09:43.325Z,17.03
2018-03-03T08:12:18.558Z,10.33
2018-03-03T08:14:53.742Z,11.53
2018-03-03T08:17:28.802Z,15.17
2018-03-03T08:20:03.893Z,11.40
2018-03-03T08:22:39.071Z,13.37
2018-03-03T08:25:14.118Z,12.53
2018-03-03T08:27:49.479Z,15.52
2018-03-03T08:30:24.562Z,11.20
2018-03-03T08:32:59.034Z,14.40
2018-03-03T08:35:33.774Z,13.50
2018-03-03T08:38:08.755Z,13.60
2018-03-03T08:40:43.594Z,9.73
2018-03-03T08:43:18.670Z,23.33
2018-03-03T08:45:53.642Z,13.15
2018-03-03T08:48:28.698Z,16.17
2018-03-03T08:51:03.454Z,13.37
2018-03-03T08:53:38.618Z,17.87
2018-03-03T08:56:13.594Z,9.60
2018-03-03T08:58:48.929Z,19.15
2018-03-03T09:01:24.453Z,16.42
2018-03-03T09:03:59.897Z,16.15
2018-03-03T09:06:34.717Z,18.10
2018-03-03T09:09:09.862Z,18.97
2018-03-03T09:11:44.679Z,12.53
2018-03-03T09:14:19.493Z,14.70
2018-03-03T09:16:54.837Z,14.68
2018-03-03T09:19:29.318Z,15.43
2018-03-03T09:22:04.433Z,16.90
2018-03-03T09:24:39.686Z,19.03
2018-03-03T09:27:14.743Z,9.13
2018-03-03T09:29:49.747Z,17.80
2018-03-03T09:32:24.728Z,11.47
2018-03-03T09:34:59.802Z,13.30
2018-03-03T09:37:34.874Z,10.83
2018-03-03T09:40:10.022Z,18.40
2018-03-03T09:42:44.882Z,13.67
2018-03-03T09:45:20.150Z,16.77
2018-03-03T09:47:54.772Z,17.48
2018-03-03T09:50:29.754Z,15.57
2018-03-03T09:53:04.762Z,14.90
2018-03-03T09:55:39.582Z,19.07
2018-03-03T09:58:14.904Z,16.97
2018-03-03T10:00:49.773Z,13.50
2018-03-03T10:03:24.929Z,20.13
2018-03-03T10:06:00.280Z,16.80
2018-03-03T10:08:34.927Z,16.20
2018-03-03T10:11:10.098Z,18.07
2018-03-03T10:13:45.146Z,20.70
2018-03-03T10:16:20.330Z,18.20
2018-03-03T10:18:55.165Z,23.13
2018-03-03T10:21:30.315Z,18.97
2018-03-03T10:24:05.340Z,16.63
2018-03-03T10:26:40.167Z,20.57
2018-03-03T10:29:14.966Z,19.57
2018-03-03T10:31:50.221Z,19.10
2018-03-03T10:34:25.102Z,19.70
2018-03-03T10:37:00.146Z,20.35
2018-03-03T10:39:35.122Z,18.93
2018-03-03T10:42:09.972Z,21.53
2018-03-03T10:44:44.857Z,18.60
2018-03-03T10:47:19.609Z,16.40
2018-03-03T10:49:55.245Z,15.10
2018-03-03T10:52:30.114Z,18.10
2018-03-03T10:55:05.374Z,18.90
2018-03-03T10:57:40.402Z,17.87
2018-03-03T11:00:21.035Z,19.30
2018-03-03T11:02:55.805Z,20.65
2018-03-03T11:05:31.108Z,22.37
2018-03-03T11:08:06.562Z,19.30
2018-03-03T11:10:41.515Z,18.50
2018-03-03T11:13:16.518Z,23.87
2018-03-03T11:15:51.290Z,20.70
2018-03-03T11:18:27.091Z,21.77
2018-03-03T11:21:02.015Z,20.30
2018-03-03T11:23:37.330Z,20.40
2018-03-03T11:26:12.198Z,14.80
2018-03-03T11:28:46.642Z,20.80
2018-03-03T11:31:21.634Z,20.30
2018-03-03T11:33:57.061Z,18.63
2018-03-03T11:36:31.435Z,15.47
2018-03-03T11:39:06.624Z,13.80
2018-03-03T11:41:41.939Z,18.85
2018-03-03T11:44:17.026Z,21.10
2018-03-03T11:46:52.310Z,23.73
2018-03-03T11:49:27.102Z,25.30
2018-03-03T11:52:02.281Z,18.73
2018-03-03T11:54:37.237Z,25.73
2018-03-03T11:57:12.310Z,20.60
2018-03-03T11:59:47.534Z,23.40
2018-03-03T12:02:22.278Z,26.37
2018-03-03T12:04:57.399Z,23.55
2018-03-03T12:07:32.446Z,15.33
2018-03-03T12:10:07.461Z,18.97
2018-03-03T12:12:42.336Z,13.13
2018-03-03T12:15:17.501Z,17.07
2018-03-03T12:17:52.926Z,24.30
2018-03-03T12:20:28.222Z,21.77
2018-03-03T12:23:03.410Z,16.23
2018-03-03T12:25:38.714Z,23.87
2018-03-03T12:28:12.996Z,19.50
2018-03-03T12:30:49.513Z,21.67
2018-03-03T12:33:24.658Z,20.10
2018-03-03T12:36:00.220Z,19.33
2018-03-03T12:38:35.464Z,23.50
2018-03-03T12:41:10.216Z,22.57
2018-03-03T12:43:45.447Z,20.37
2018-03-03T12:46:20.803Z,16.97
2018-03-03T12:48:55.683Z,17.80
2018-03-03T12:51:31.267Z,23.37
2018-03-03T12:54:06.196Z,21.10
2018-03-03T12:56:41.284Z,18.23
2018-03-03T12:59:16.543Z,23.30
2018-03-03T13:01:51.851Z,28.43
2018-03-03T13:04:27.339Z,16.53
2018-03-03T13:07:02.487Z,21.90
2018-03-03T13:09:37.535Z,17.33
2018-03-03T13:12:13.059Z,23.98
2018-03-03T13:14:47.510Z,19.53
2018-03-03T13:17:22.331Z,23.60
2018-03-03T13:19:57.719Z,16.80
2018-03-03T13:22:32.608Z,19.23
2018-03-03T13:25:07.680Z,18.43
2018-03-03T13:27:42.435Z,22.00
2018-03-03T13:30:17.403Z,20.70
2018-03-03T13:32:52.643Z,23.10
2018-03-03T13:35:28.592Z,17.13
2018-03-03T13:38:04.117Z,24.40
2018-03-03T13:40:38.883Z,21.63
2018-03-03T13:43:13.755Z,24.23
2018-03-03T13:45:49.836Z,27.15
2018-03-03T13:48:24.692Z,12.53
2018-03-03T13:50:59.536Z,26.40
2018-03-03T13:53:34.563Z,20.87
2018-03-03T13:56:09.379Z,17.50
2018-03-03T13:58:43.919Z,19.43
2018-03-03T14:01:18.892Z,22.37
2018-03-03T14:03:54.369Z,25.20
2018-03-03T14:06:29.508Z,19.03
2018-03-03T14:09:03.996Z,20.90
2018-03-03T14:11:39.417Z,20.17
2018-03-03T14:14:14.399Z,22.93
2018-03-03T14:16:49.828Z,22.42
2018-03-03T14:19:24.552Z,20.70
2018-03-03T14:21:59.421Z,20.12
2018-03-03T14:24:34.480Z,17.30
2018-03-03T14:27:09.734Z,19.90
2018-03-03T14:29:44.655Z,23.00
2018-03-03T14:32:19.764Z,20.07
2018-03-03T14:34:54.987Z,20.57
2018-03-03T14:37:29.988Z,20.77
2018-03-03T14:40:04.532Z,22.07
2018-03-03T14:42:39.538Z,16.67
2018-03-03T14:45:14.675Z,20.77
2018-03-03T14:47:50.108Z,18.00
2018-03-03T14:50:24.964Z,21.40
2018-03-03T14:53:00.748Z,21.95
2018-03-03T14:55:35.204Z,21.23
2018-03-03T14:58:10.295Z,19.37
2018-03-03T15:00:45.008Z,20.60
2018-03-03T15:03:20.275Z,26.37
2018-03-03T15:05:55.831Z,22.65
2018-03-03T15:08:30.891Z,20.50
2018-03-03T15:11:06.547Z,17.55
2018-03-03T15:13:41.972Z,19.23
2018-03-03T15:16:16.731Z,21.57
2018-03-03T15:18:51.898Z,22.40
2018-03-03T15:21:27.116Z,21.00
2018-03-03T15:24:02.387Z,22.52
2018-03-03T15:26:37.586Z,14.83
2018-03-03T15:29:12.796Z,25.00
2018-03-03T15:31:48.128Z,25.23
2018-03-03T15:34:23.583Z,17.67
2018-03-03T15:36:59.148Z,16.77
2018-03-03T15:39:34.704Z,19.27
2018-03-03T15:42:10.226Z,23.13
2018-03-03T15:44:45.651Z,23.33
2018-03-03T15:47:20.393Z,18.87
2018-03-03T15:49:55.848Z,19.60
2018-03-03T15:52:30.943Z,22.63
2018-03-03T15:55:05.976Z,21.30
2018-03-03T15:57:41.099Z,15.07
2018-03-03T16:00:16.444Z,13.93
2018-03-03T16:02:51.869Z,23.70
2018-03-03T16:05:26.722Z,15.10
2018-03-03T16:08:01.977Z,23.50
2018-03-03T16:10:37.068Z,14.47
2018-03-03T16:13:12.511Z,22.02
2018-03-03T16:15:47.639Z,20.80
2018-03-03T16:18:22.455Z,18.35
2018-03-03T16:20:57.296Z,15.00
2018-03-03T16:23:32.235Z,20.03
2018-03-03T16:26:07.341Z,19.00
2018-03-03T16:28:42.643Z,16.20
2018-03-03T16:31:17.520Z,14.25
2018-03-03T16:33:52.752Z,15.03
2018-03-03T16:36:27.695Z,20.23
2018-03-03T16:39:02.716Z,14.65
2018-03-03T16:41:37.349Z,21.17
2018-03-03T16:44:12.300Z,17.73
2018-03-03T16:46:47.256Z,20.57
2018-03-03T16:49:22.512Z,14.43
2018-03-03T16:51:57.709Z,12.75
2018-03-03T16:54:32.348Z,16.20
2018-03-03T16:57:07.820Z,11.13
2018-03-03T16:59:42.467Z,13.53
2018-03-03T17:02:17.979Z,10.80
2018-03-03T17:04:52.848Z,17.00
2018-03-03T17:07:27.711Z,15.60
2018-03-03T17:10:03.040Z,15.80
2018-03-03T17:12:38.075Z,17.23
2018-03-03T17:15:13.311Z,14.50
2018-03-03T17:17:48.459Z,12.03
2018-03-03T17:20:23.411Z,14.73
2018-03-03T17:22:58.878Z,14.48
2018-03-03T17:25:33.852Z,16.05
2018-03-03T17:28:08.847Z,10.20
2018-03-03T17:30:43.875Z,12.80
2018-03-03T17:33:18.876Z,14.27
2018-03-03T17:35:54.198Z,9.73
2018-03-03T17:38:29.124Z,16.30
2018-03-03T17:41:04.269Z,13.87
2018-03-03T17:43:39.286Z,10.80
2018-03-03T17:46:14.740Z,14.45
2018-03-03T17:48:50.223Z,11.50
2018-03-03T17:51:25.903Z,11.03
2018-03-03T17:54:00.907Z,10.30
2018-03-03T17:56:35.876Z,16.80
2018-03-03T17:59:11.825Z,15.57
2018-03-03T18:01:46.766Z,14.32
2018-03-03T18:04:21.904Z,15.17
2018-03-03T18:06:56.856Z,10.80
2018-03-03T18:09:31.912Z,11.80
2018-03-03T18:12:07.159Z,12.80
2018-03-03T18:14:42.216Z,11.70
2018-03-03T18:17:17.191Z,19.33
2018-03-03T18:19:52.213Z,11.27
2018-03-03T18:22:27.377Z,19.00
2018-03-03T18:25:02.335Z,16.13
2018-03-03T18:27:37.787Z,13.88
2018-03-03T18:30:12.719Z,18.40
2018-03-03T18:32:47.412Z,9.37
2018-03-03T18:35:22.300Z,9.93
2018-03-03T18:37:57.855Z,11.00
2018-03-03T18:40:33.036Z,13.90
2018-03-03T18:43:08.284Z,7.23
2018-03-03T18:45:42.982Z,11.37
2018-03-03T18:48:17.983Z,11.00
2018-03-03T18:50:52.311Z,19.67
2018-03-03T18:53:27.583Z,17.00
2018-03-03T18:56:02.180Z,14.10
2018-03-03T18:58:37.803Z,17.50
2018-03-03T19:01:13.103Z,18.63
2018-03-03T19:03:48.041Z,9.87
2018-03-03T19:06:23.076Z,9.53
2018-03-03T19:08:57.712Z,17.10
2018-03-03T19:11:33.024Z,16.02
2018-03-03T19:14:08.300Z,16.73
2018-03-03T19:16:43.148Z,20.17
2018-03-03T19:19:18.124Z,12.23
2018-03-03T19:21:53.376Z,17.73
2018-03-03T19:24:28.452Z,16.73
2018-03-03T19:27:03.775Z,14.87
2018-03-03T19:29:38.733Z,15.50
2018-03-03T19:32:13.780Z,12.70
2018-03-03T19:34:48.994Z,16.17
2018-03-03T19:37:24.314Z,17.90
2018-03-03T19:39:59.117Z,17.45
2018-03-03T19:42:34.087Z,12.40
2018-03-03T19:45:08.545Z,13.20
2018-03-03T19:47:43.244Z,12.43
2018-03-03T19:50:18.216Z,8.47
2018-03-03T19:52:53.332Z,15.23
2018-03-03T19:55:28.204Z,16.00
2018-03-03T19:58:03.481Z,13.20
2018-03-03T20:00:38.440Z,12.20
2018-03-03T20:03:13.492Z,16.93
2018-03-03T20:05:48.536Z,9.40
2018-03-03T20:08:23.520Z,11.67
2018-03-03T20:10:58.472Z,13.97
2018-03-03T20:13:32.879Z,17.10
2018-03-03T20:16:08.081Z,12.57
2018-03-03T20:18:43.148Z,16.07
2018-03-03T20:21:18.103Z,18.20
2018-03-03T20:23:53.404Z,14.50
2018-03-03T20:26:30.680Z,11.67
2018-03-03T20:29:05.611Z,12.73
2018-03-03T20:31:41.167Z,13.03
2018-03-03T20:34:16.156Z,13.00
2018-03-03T20:36:50.580Z,11.63
2018-03-03T20:39:26.075Z,13.88
2018-03-03T20:42:00.832Z,18.33
2018-03-03T20:44:35.608Z,16.77
2018-03-03T20:47:10.595Z,11.07
2018-03-03T20:49:45.539Z,20.07
2018-03-03T20:52:20.599Z,17.10
2018-03-03T20:54:55.543Z,17.33
2018-03-03T20:57:31.084Z,15.77
2018-03-03T21:00:05.731Z,14.45
2018-03-03T21:02:40.917Z,11.20
2018-03-03T21:05:16.424Z,13.67
2018-03-03T21:07:51.648Z,9.53
2018-03-03T21:10:26.292Z,13.63
2018-03-03T21:13:01.444Z,16.42
2018-03-03T21:15:36.508Z,14.30
2018-03-03T21:18:11.583Z,4.77
2018-03-03T21:20:46.619Z,10.27
2018-03-03T21:23:21.360Z,12.98
2018-03-03T21:25:56.300Z,12.93
2018-03-03T21:28:31.386Z,9.33
2018-03-03T21:31:06.575Z,12.70
2018-03-03T21:33:41.709Z,12.53
2018-03-03T21:36:16.763Z,14.40
2018-03-03T21:38:52.226Z,12.83
2018-03-03T21:41:27.721Z,12.23
2018-03-03T21:44:02.842Z,12.17
2018-03-03T21:46:38.328Z,12.83
2018-03-03T21:49:13.259Z,15.40
2018-03-03T21:51:48.666Z,13.53
2018-03-03T21:54:23.379Z,12.70
2018-03-03T21:56:58.696Z,12.35
2018-03-03T21:59:33.569Z,9.43
2018-03-03T22:02:08.527Z,9.55
2018-03-03T22:04:43.375Z,12.50
2018-03-03T22:07:18.407Z,12.57
2018-03-03T22:09:53.543Z,14.60
2018-03-03T22:12:28.380Z,16.20
2018-03-03T22:15:03.539Z,11.25
2018-03-03T22:17:38.628Z,15.77
2018-03-03T22:20:13.594Z,15.63
2018-03-03T22:22:48.939Z,11.83
2018-03-03T22:25:24.408Z,11.50
2018-03-03T22:27:59.764Z,12.40
2018-03-03T22:30:34.697Z,15.47
2018-03-03T22:33:10.280Z,12.52
2018-03-03T22:35:45.144Z,16.70
2018-03-03T22:38:20.947Z,7.72
2018-03-03T22:40:55.824Z,15.30
2018-03-03T22:43:30.998Z,12.80
2018-03-03T22:46:06.448Z,13.32
2018-03-03T22:48:41.464Z,12.17
2018-03-03T22:51:16.534Z,14.43
2018-03-03T22:53:51.998Z,12.40
2018-03-03T22:56:26.776Z,15.77
2018-03-03T22:59:02.041Z,12.33
2018-03-03T23:01:36.824Z,14.93
2018-03-03T23:04:11.999Z,17.23
2018-03-03T23:06:47.056Z,17.20
2018-03-03T23:09:22.025Z,17.47
2018-03-03T23:11:56.871Z,16.12
2018-03-03T23:14:31.932Z,8.63
2018-03-03T23:17:06.595Z,15.97
2018-03-03T23:19:41.639Z,16.77
2018-03-03T23:22:16.871Z,17.90
2018-03-03T23:24:52.063Z,15.97
2018-03-03T23:27:26.703Z,12.50
2018-03-03T23:30:01.872Z,13.52
2018-03-03T23:32:36.759Z,11.18
2018-03-03T23:35:11.989Z,9.85
2018-03-03T23:37:46.720Z,14.50
2018-03-03T23:40:21.851Z,13.97
2018-03-03T23:42:56.859Z,17.33
2018-03-03T23:45:31.899Z,16.37
2018-03-03T23:48:06.901Z,18.08
2018-03-03T23:50:41.992Z,18.30
2018-03-03T23:53:17.036Z,16.47
2018-03-03T23:55:52.218Z,15.83
2018-03-03T23:58:26.791Z,14.90
